Time;durP1;ratioP1;P1;durP2;ratioP2;P2;SDS_P1;SDS_P2;PMS_P1;PMS_P2;Temp;Humidity;BMP_temperature;BMP_pressure;BME280_temperature;BME280_humidity;BME280_pressure;Samples;Min_cycle;Max_cycle;Signal;HPM_P1;HPM_P2
2023/05/27 00:01:18;;;;;;;12.93;5.80;;;;;;;20.41;60.30;100008.94;4273885;33;20117;-82
2023/05/27 00:03:45;;;;;;;8.35;5.43;;;;;;;20.14;60.28;100004.53;4274083;33;20093;-82
2023/05/27 00:06:10;;;;;;;9.13;5.95;;;;;;;19.98;60.27;100009.16;4285769;33;20161;-81
2023/05/27 00:08:35;;;;;;;8.45;5.95;;;;;;;20.04;60.28;100007.88;4273369;33;36540;-82
2023/05/27 00:11:01;;;;;;;7.93;6.28;;;;;;;20.25;60.29;100003.78;4286147;33;20116;-82
2023/05/27 00:13:26;;;;;;;10.75;6.53;;;;;;;20.10;60.28;100003.03;4285224;33;35650;-81
2023/05/27 00:15:52;;;;;;;8.55;6.32;;;;;;;20.09;60.28;99997.84;4274226;33;20390;-81
2023/05/27 00:18:17;;;;;;;11.23;6.28;;;;;;;20.07;60.27;99997.94;4285711;33;20121;-81
2023/05/27 00:20:42;;;;;;;9.60;6.22;;;;;;;20.13;60.28;99999.34;4288129;33;20152;-81
2023/05/27 00:23:08;;;;;;;10.52;6.03;;;;;;;20.22;60.29;99994.28;4288478;33;34671;-81
2023/05/27 00:25:33;;;;;;;9.50;6.20;;;;;;;20.24;60.30;99996.81;4287542;33;21893;-81
2023/05/27 00:27:59;;;;;;;9.30;6.62;;;;;;;19.99;60.27;99991.50;4289210;33;20519;-81
2023/05/27 00:30:24;;;;;;;11.38;7.07;;;;;;;20.02;60.28;100002.69;4288109;33;20185;-81
2023/05/27 00:32:49;;;;;;;8.18;6.32;;;;;;;20.06;60.28;99998.06;4289346;33;20132;-81
2023/05/27 00:35:15;;;;;;;10.30;6.60;;;;;;;20.03;60.28;99996.47;4288015;33;20108;-81
2023/05/27 00:37:41;;;;;;;10.50;6.85;;;;;;;20.10;60.28;99992.44;4275859;33;20102;-82
2023/05/27 00:40:08;;;;;;;11.20;6.90;;;;;;;20.13;60.28;99989.62;4275937;33;20132;-82
2023/05/27 00:42:34;;;;;;;7.93;5.87;;;;;;;20.17;60.29;99988.47;4275614;33;20208;-81
2023/05/27 00:44:59;;;;;;;9.73;7.03;;;;;;;20.02;60.28;99988.66;4287967;33;20120;-82
2023/05/27 00:47:27;;;;;;;14.57;7.47;;;;;;;20.14;60.28;99982.53;4287410;33;20130;-81
2023/05/27 00:49:53;;;;;;;8.55;6.32;;;;;;;20.01;60.28;99984.31;4269926;33;204606;-81
2023/05/27 00:52:18;;;;;;;11.20;7.05;;;;;;;20.19;60.29;99991.00;4288374;33;20140;-82
2023/05/27 00:54:43;;;;;;;9.88;7.00;;;;;;;20.09;60.29;99990.75;4287783;33;35583;-81
2023/05/27 00:57:09;;;;;;;9.13;6.75;;;;;;;20.00;60.28;99988.75;4276322;33;20196;-81
2023/05/27 00:59:34;;;;;;;12.75;6.55;;;;;;;20.35;60.30;99986.37;4289671;33;20133;-81
2023/05/27 01:02:00;;;;;;;16.90;7.05;;;;;;;20.30;60.29;99985.81;4287304;33;35534;-81
2023/05/27 01:04:25;;;;;;;10.32;6.40;;;;;;;20.38;60.30;99987.97;4288570;33;20539;-81
2023/05/27 01:07:10;;;;;;;8.65;5.97;;;;;;;20.20;60.29;99992.69;4275650;33;20101;-82
2023/05/27 01:09:45;;;;;;;10.02;6.85;;;;;;;20.41;60.30;99985.13;4276238;33;20173;-82
2023/05/27 01:12:28;;;;;;;9.43;6.00;;;;;;;20.22;60.28;99983.69;4288458;33;20142;-81
2023/05/27 01:14:54;;;;;;;9.55;6.90;;;;;;;20.25;60.29;99987.94;4289664;33;20118;-81
2023/05/27 01:17:19;;;;;;;10.75;7.10;;;;;;;20.31;60.29;99981.38;4276485;33;20125;-81
2023/05/27 01:19:45;;;;;;;8.77;6.50;;;;;;;20.35;60.29;99986.37;4288305;33;20451;-82
2023/05/27 01:22:14;;;;;;;10.23;6.50;;;;;;;20.48;60.31;99986.37;4289307;33;20498;-82
2023/05/27 01:24:42;;;;;;;8.73;6.30;;;;;;;20.41;60.30;99978.03;4288188;33;20119;-82
2023/05/27 01:27:15;;;;;;;9.63;6.50;;;;;;;20.63;60.31;99980.03;4288164;33;20113;-81
2023/05/27 01:29:40;;;;;;;12.93;7.10;;;;;;;20.34;60.29;99976.72;4264411;33;20109;-81
2023/05/27 01:32:07;;;;;;;8.27;6.40;;;;;;;20.56;60.31;99975.28;4287862;33;20159;-82
2023/05/27 01:34:40;;;;;;;10.13;6.43;;;;;;;20.53;60.30;99973.69;4288157;33;20132;-81
2023/05/27 01:37:07;;;;;;;9.60;6.35;;;;;;;20.49;60.30;99973.06;4276128;33;20519;-82
2023/05/27 01:39:33;;;;;;;7.78;6.10;;;;;;;20.46;60.29;99970.63;4276377;33;20131;-82
2023/05/27 01:42:00;;;;;;;9.75;7.03;;;;;;;20.69;60.31;99971.66;4287926;33;20093;-82
2023/05/27 01:44:25;;;;;;;11.48;6.87;;;;;;;20.41;60.30;99972.75;4276226;33;20518;-82
2023/05/27 01:46:51;;;;;;;12.40;6.60;;;;;;;20.35;60.30;99977.59;4275194;33;36089;-82
2023/05/27 01:49:16;;;;;;;8.13;6.57;;;;;;;20.33;60.30;99968.88;4275983;33;23136;-82
2023/05/27 01:51:42;;;;;;;8.63;6.28;;;;;;;20.11;60.28;99974.78;4279217;33;22904;-83
2023/05/27 01:54:07;;;;;;;11.30;7.45;;;;;;;19.77;60.27;99966.50;4287669;33;20144;-82
2023/05/27 01:56:33;;;;;;;11.05;6.82;;;;;;;19.70;60.25;99969.66;4269266;33;20131;-83
2023/05/27 01:58:58;;;;;;;12.68;7.03;;;;;;;19.68;60.25;99972.41;4276078;33;20127;-83
2023/05/27 02:01:23;;;;;;;10.80;6.93;;;;;;;19.66;60.26;99971.66;4275925;33;20468;-83
2023/05/27 02:03:49;;;;;;;12.00;8.38;;;;;;;19.56;60.26;99971.41;4264234;33;20470;-84
2023/05/27 02:06:14;;;;;;;14.20;7.18;;;;;;;19.47;60.25;99971.97;4276193;33;20430;-83
2023/05/27 02:08:40;;;;;;;10.70;7.32;;;;;;;19.31;60.24;99972.13;4289507;33;20370;-85
2023/05/27 02:11:05;;;;;;;10.05;6.75;;;;;;;19.29;60.23;99974.00;4288016;33;20168;-84
2023/05/27 02:13:31;;;;;;;12.18;7.95;;;;;;;19.17;60.23;99969.53;4289289;33;20125;-82
2023/05/27 02:15:56;;;;;;;12.27;7.93;;;;;;;19.13;60.23;99975.94;4289099;33;20203;-81
2023/05/27 02:18:21;;;;;;;12.68;7.97;;;;;;;19.21;60.23;99964.91;4289148;33;20107;-80
2023/05/27 02:20:47;;;;;;;11.90;7.72;;;;;;;19.02;60.23;99975.78;4289237;33;20526;-81
2023/05/27 02:23:12;;;;;;;11.82;8.10;;;;;;;19.01;60.23;99971.44;4288561;33;35958;-81
2023/05/27 02:25:38;;;;;;;10.60;7.45;;;;;;;18.94;60.22;99978.06;4289139;33;20139;-81
2023/05/27 02:28:03;;;;;;;13.15;7.72;;;;;;;18.82;60.21;99974.38;4289393;33;20454;-80
2023/05/27 02:30:30;;;;;;;12.05;7.87;;;;;;;18.70;60.22;99977.81;4289335;33;20140;-80
2023/05/27 02:32:56;;;;;;;13.70;7.95;;;;;;;18.67;60.20;99980.59;4276407;33;20442;-80
2023/05/27 02:35:21;;;;;;;11.10;7.80;;;;;;;18.83;60.21;99984.00;4276091;33;20172;-80
2023/05/27 02:37:47;;;;;;;12.32;7.60;;;;;;;18.77;60.22;99979.09;4287592;33;20109;-80
2023/05/27 02:40:26;;;;;;;12.20;8.13;;;;;;;18.47;60.20;99981.81;4287184;33;36822;-81
2023/05/27 02:42:52;;;;;;;11.23;7.97;;;;;;;18.76;60.21;99982.69;4272621;33;20119;-81
2023/05/27 02:45:17;;;;;;;10.27;7.43;;;;;;;18.77;60.21;99980.91;4287847;33;20108;-81
2023/05/27 02:47:42;;;;;;;16.23;7.80;;;;;;;18.87;60.22;99976.72;4287676;33;20143;-80
2023/05/27 02:50:08;;;;;;;11.93;8.10;;;;;;;18.80;60.21;99980.69;4275102;33;22994;-80
2023/05/27 02:52:33;;;;;;;10.82;7.68;;;;;;;18.68;60.20;99972.59;4287803;33;20100;-80
2023/05/27 02:57:43;;;;;;;11.85;7.87;;;;;;;18.64;60.22;99983.44;4277886;33;20128;-81
2023/05/27 03:00:09;;;;;;;14.77;8.20;;;;;;;18.63;60.21;99981.75;4286658;33;33456;-80
2023/05/27 03:02:34;;;;;;;13.18;7.90;;;;;;;18.61;60.21;99978.31;4287593;33;20498;-80
2023/05/27 03:05:00;;;;;;;11.63;7.68;;;;;;;18.68;60.20;99984.94;4288135;33;20097;-81
2023/05/27 03:07:28;;;;;;;13.57;7.85;;;;;;;18.33;60.19;99982.62;4287947;33;20123;-82
2023/05/27 03:09:54;;;;;;;11.55;7.30;;;;;;;18.32;60.19;99983.56;4287670;33;20591;-81
2023/05/27 03:12:20;;;;;;;13.20;8.48;;;;;;;18.59;60.20;99993.37;4275523;33;20089;-82
2023/05/27 03:14:45;;;;;;;10.60;7.95;;;;;;;18.48;60.20;99987.94;4275452;33;22675;-81
2023/05/27 03:17:10;;;;;;;15.38;7.37;;;;;;;18.56;60.20;99983.03;4287984;33;20128;-81
2023/05/27 03:19:36;;;;;;;10.45;7.12;;;;;;;18.48;60.20;99986.16;4275694;33;20170;-81
2023/05/27 03:22:01;;;;;;;13.55;7.60;;;;;;;18.72;60.21;99975.91;4287769;33;20096;-80
2023/05/27 03:24:26;;;;;;;11.38;7.35;;;;;;;18.64;60.21;99994.81;4274883;33;36004;-81
2023/05/27 03:26:52;;;;;;;13.10;8.18;;;;;;;18.83;60.21;99988.41;4288825;33;20149;-80
2023/05/27 03:29:17;;;;;;;11.57;7.10;;;;;;;18.94;60.22;99986.81;4288508;33;20125;-80
2023/05/27 03:31:43;;;;;;;12.23;7.30;;;;;;;18.84;60.21;99995.38;4287370;33;20168;-81
2023/05/27 03:34:08;;;;;;;9.95;7.43;;;;;;;18.77;60.21;99999.34;4287311;33;20151;-81
2023/05/27 03:36:35;;;;;;;12.85;7.57;;;;;;;18.83;60.21;99998.97;4287510;33;20143;-80
2023/05/27 03:39:00;;;;;;;11.57;7.93;;;;;;;18.91;60.21;99996.69;4287364;33;20088;-80
2023/05/27 03:41:25;;;;;;;13.93;7.45;;;;;;;19.16;60.23;99999.47;4287323;33;20355;-81
2023/05/27 03:43:51;;;;;;;9.55;7.00;;;;;;;19.29;60.23;99996.91;4288397;33;20540;-81
2023/05/27 03:46:16;;;;;;;10.65;7.55;;;;;;;19.26;60.24;99997.12;4286947;33;29696;-81
2023/05/27 03:48:42;;;;;;;9.57;6.85;;;;;;;19.60;60.25;99994.00;4275317;33;20189;-81
2023/05/27 03:51:07;;;;;;;8.82;6.65;;;;;;;19.53;60.25;100000.66;4287377;33;20160;-81
2023/05/27 03:53:32;;;;;;;8.35;6.37;;;;;;;19.72;60.26;99994.19;4273118;33;37267;-81
2023/05/27 03:55:58;;;;;;;13.40;7.65;;;;;;;19.67;60.26;100004.19;4282124;33;22014;-80
2023/05/27 03:58:23;;;;;;;15.77;6.85;;;;;;;19.65;60.26;100003.47;4288089;33;20136;-81
2023/05/27 04:00:48;;;;;;;9.90;7.10;;;;;;;19.99;60.28;99991.50;4274563;33;34146;-80
2023/05/27 04:03:14;;;;;;;11.07;7.00;;;;;;;20.00;60.27;99998.47;4287239;33;20113;-81
2023/05/27 04:05:39;;;;;;;11.52;6.60;;;;;;;20.03;60.28;99992.97;4287347;33;20120;-81
2023/05/27 04:08:05;;;;;;;9.45;7.12;;;;;;;20.11;60.28;99991.53;4275099;33;20076;-81
2023/05/27 04:10:30;;;;;;;10.23;6.50;;;;;;;20.38;60.28;99991.44;4288279;33;20149;-80
2023/05/27 04:12:56;;;;;;;9.35;6.55;;;;;;;20.67;60.31;99991.25;4285964;33;34733;-81
2023/05/27 04:15:21;;;;;;;9.75;6.68;;;;;;;20.75;60.32;99989.75;4286673;33;20348;-81
2023/05/27 04:17:47;;;;;;;10.70;6.50;;;;;;;20.75;60.32;99983.63;4274176;33;32225;-81
2023/05/27 04:20:15;;;;;;;11.82;6.50;;;;;;;20.83;60.31;99983.94;4286901;33;20116;-81
2023/05/27 04:22:41;;;;;;;8.52;5.78;;;;;;;21.04;60.33;99992.13;4288286;33;20097;-81
2023/05/27 04:25:07;;;;;;;9.73;6.30;;;;;;;21.03;60.33;99993.09;4272173;33;20580;-81
2023/05/27 04:27:33;;;;;;;10.23;7.12;;;;;;;21.01;60.34;99998.50;4286372;33;20092;-81
2023/05/27 04:29:59;;;;;;;11.45;6.20;;;;;;;21.20;60.34;99995.38;4274567;33;20104;-80
2023/05/27 04:32:27;;;;;;;9.82;6.28;;;;;;;21.31;60.34;99997.31;4274110;33;20105;-80
2023/05/27 04:34:52;;;;;;;9.88;5.90;;;;;;;21.51;60.35;99999.31;4286564;33;20506;-81
2023/05/27 04:37:19;;;;;;;8.85;6.32;;;;;;;21.60;60.36;100006.59;4286446;33;20165;-82
2023/05/27 04:39:46;;;;;;;9.45;6.47;;;;;;;21.69;60.36;100011.22;4274303;33;20092;-81
2023/05/27 04:42:12;;;;;;;9.68;5.95;;;;;;;21.68;60.36;100008.69;4274274;33;20172;-81
2023/05/27 04:44:38;;;;;;;12.13;6.15;;;;;;;21.69;60.36;100005.91;4287664;33;20141;-81
2023/05/27 04:47:04;;;;;;;11.18;6.68;;;;;;;21.70;60.36;100004.94;4274059;33;20084;-81
2023/05/27 04:49:30;;;;;;;8.82;6.12;;;;;;;21.60;60.35;100009.25;4273899;33;20116;-80
2023/05/27 04:51:55;;;;;;;12.37;6.72;;;;;;;21.73;60.37;100007.38;4285932;33;20147;-82
2023/05/27 04:54:21;;;;;;;10.95;6.32;;;;;;;21.98;60.38;100006.37;4285611;33;26586;-81
2023/05/27 04:56:46;;;;;;;12.15;6.20;;;;;;;22.09;60.38;100008.28;4285829;33;20879;-81
2023/05/27 04:59:16;;;;;;;11.60;5.85;;;;;;;22.16;60.38;100012.16;4274049;33;20092;-81
2023/05/27 05:04:26;;;;;;;14.82;5.95;;;;;;;22.41;60.41;100007.63;4288002;33;20119;-79
2023/05/27 05:06:52;;;;;;;10.45;5.65;;;;;;;22.42;60.41;100006.66;4287161;33;36811;-81
2023/05/27 05:09:17;;;;;;;12.55;6.00;;;;;;;22.49;60.41;100016.69;4275986;33;20133;-81
2023/05/27 05:11:42;;;;;;;6.87;4.93;;;;;;;22.72;60.41;100006.09;4275643;33;20139;-81
2023/05/27 05:14:08;;;;;;;6.70;4.87;;;;;;;22.79;60.42;100020.56;4287688;33;24206;-81
2023/05/27 05:16:33;;;;;;;11.75;5.20;;;;;;;22.97;60.43;100019.16;4276198;33;20069;-81
2023/05/27 05:18:59;;;;;;;9.52;5.95;;;;;;;23.11;60.43;100013.59;4275280;33;36019;-81
2023/05/27 05:21:24;;;;;;;7.65;5.15;;;;;;;23.16;60.44;100011.41;4289293;33;20089;-81
2023/05/27 05:23:50;;;;;;;8.93;5.15;;;;;;;23.21;60.45;100009.25;4287735;33;20101;-81
2023/05/27 05:26:15;;;;;;;9.52;5.30;;;;;;;23.16;60.44;100014.06;4287571;33;20748;-81
2023/05/27 05:28:40;;;;;;;11.38;5.70;;;;;;;23.24;60.44;100010.81;4275396;33;30927;-81
2023/05/27 05:31:06;;;;;;;9.07;5.60;;;;;;;23.24;60.44;100016.13;4289124;33;20104;-81
2023/05/27 05:33:31;;;;;;;9.57;4.72;;;;;;;23.28;60.45;100021.06;4286871;33;37294;-81
2023/05/27 05:35:56;;;;;;;6.95;5.10;;;;;;;23.22;60.44;100023.37;4275993;33;20174;-80
2023/05/27 05:38:22;;;;;;;9.30;5.82;;;;;;;23.22;60.45;100024.22;4275743;33;20800;-81
2023/05/27 05:40:49;;;;;;;11.68;5.60;;;;;;;23.05;60.44;100024.69;4275947;33;20627;-81
2023/05/27 05:43:15;;;;;;;8.98;5.50;;;;;;;23.02;60.43;100032.06;4278634;33;20176;-82
2023/05/27 05:45:40;;;;;;;7.22;4.60;;;;;;;23.06;60.44;100036.16;4275951;33;20513;-80
2023/05/27 05:48:05;;;;;;;10.52;4.90;;;;;;;23.00;60.43;100037.50;4287200;33;32803;-81
2023/05/27 05:50:32;;;;;;;8.35;5.72;;;;;;;23.09;60.43;100041.22;4286920;33;24699;-81
2023/05/27 05:52:57;;;;;;;9.98;4.95;;;;;;;23.18;60.45;100038.69;4287500;33;20100;-79
2023/05/27 05:55:23;;;;;;;7.82;5.07;;;;;;;23.16;60.44;100037.97;4287641;33;20316;-81
2023/05/27 05:57:48;;;;;;;8.23;5.03;;;;;;;23.23;60.45;100044.50;4285349;33;20153;-79
2023/05/27 06:00:14;;;;;;;7.93;4.65;;;;;;;23.21;60.45;100050.91;4285260;33;20141;-81
2023/05/27 06:02:40;;;;;;;7.87;4.95;;;;;;;23.29;60.45;100051.13;4285447;33;20419;-81
2023/05/27 06:05:06;;;;;;;10.10;4.68;;;;;;;23.33;60.44;100057.87;4285405;33;20093;-81
2023/05/27 06:07:31;;;;;;;8.55;4.72;;;;;;;23.35;60.46;100055.94;4288428;33;20136;-81
2023/05/27 06:09:56;;;;;;;12.65;5.70;;;;;;;23.40;60.45;100059.06;4275014;33;33981;-81
2023/05/27 06:12:22;;;;;;;8.68;4.72;;;;;;;23.41;60.45;100062.56;4274813;33;37910;-81
2023/05/27 06:14:47;;;;;;;11.07;4.87;;;;;;;23.52;60.46;100066.06;4289121;33;20370;-81
2023/05/27 06:17:13;;;;;;;8.95;4.68;;;;;;;23.61;60.47;100059.16;4288046;33;20405;-81
2023/05/27 06:19:38;;;;;;;12.15;5.18;;;;;;;23.79;60.47;100064.81;4287849;33;20816;-81
2023/05/27 06:22:05;;;;;;;7.20;4.25;;;;;;;23.79;60.48;100070.13;4287133;33;24694;-81
2023/05/27 06:24:31;;;;;;;13.32;4.93;;;;;;;23.67;60.47;100068.47;4288762;33;20115;-81
2023/05/27 06:26:56;;;;;;;11.27;4.97;;;;;;;23.54;60.46;100076.56;4287761;33;20089;-81
2023/05/27 06:29:21;;;;;;;8.13;4.65;;;;;;;23.60;60.47;100088.53;4287868;33;20153;-81
2023/05/27 06:31:48;;;;;;;9.95;4.87;;;;;;;23.54;60.47;100087.19;4287574;33;20434;-81
2023/05/27 06:34:13;;;;;;;15.43;5.07;;;;;;;23.51;60.47;100090.09;4287599;33;20088;-81
2023/05/27 06:36:39;;;;;;;7.78;4.65;;;;;;;23.56;60.46;100088.78;4275352;33;20147;-81
2023/05/27 06:39:04;;;;;;;7.00;4.20;;;;;;;23.55;60.46;100080.91;4287019;33;20152;-81
2023/05/27 06:41:30;;;;;;;11.32;4.32;;;;;;;23.66;60.48;100082.72;4263251;33;20140;-81
2023/05/27 06:43:55;;;;;;;11.38;4.85;;;;;;;23.97;60.49;100084.56;4287182;33;22929;-81
2023/05/27 06:46:20;;;;;;;6.45;4.12;;;;;;;24.18;60.49;100081.97;4289166;33;20354;-80
2023/05/27 06:48:46;;;;;;;9.82;4.37;;;;;;;24.25;60.50;100083.12;4289194;33;20152;-81
2023/05/27 06:51:11;;;;;;;8.43;4.60;;;;;;;24.30;60.51;100086.28;4288993;33;20109;-80
2023/05/27 06:53:37;;;;;;;9.45;4.90;;;;;;;24.33;60.50;100096.66;4287606;33;20583;-81
2023/05/27 06:56:02;;;;;;;7.97;4.25;;;;;;;24.39;60.51;100092.66;4275351;33;21660;-81
2023/05/27 06:58:28;;;;;;;9.20;4.07;;;;;;;24.47;60.51;100083.03;4275558;33;20332;-81
2023/05/27 07:00:53;;;;;;;9.35;4.30;;;;;;;24.42;60.51;100093.25;4287229;33;20534;-81
2023/05/27 07:03:18;;;;;;;7.20;3.83;;;;;;;24.51;60.51;100090.75;4288611;33;20552;-81
2023/05/27 07:05:44;;;;;;;9.52;4.07;;;;;;;24.65;60.52;100087.78;4287732;33;20124;-81
2023/05/27 07:08:09;;;;;;;9.82;4.10;;;;;;;24.67;60.51;100096.50;4288884;33;20431;-81
2023/05/27 07:10:35;;;;;;;4.90;3.12;;;;;;;24.97;60.54;100093.84;4287804;33;20185;-81
2023/05/27 07:13:00;;;;;;;7.82;3.85;;;;;;;25.01;60.54;100099.78;4275011;33;35018;-81
2023/05/27 07:15:27;;;;;;;8.57;3.80;;;;;;;24.91;60.54;100093.53;4287241;33;22418;-81
2023/05/27 07:17:52;;;;;;;7.07;3.83;;;;;;;25.15;60.55;100094.09;4276037;33;20135;-81
2023/05/27 07:20:18;;;;;;;7.22;3.97;;;;;;;25.28;60.55;100091.19;4275795;33;20113;-82
2023/05/27 07:22:43;;;;;;;6.43;3.97;;;;;;;25.50;60.56;100095.47;4288965;33;20250;-82
2023/05/27 07:25:09;;;;;;;7.93;4.00;;;;;;;25.44;60.56;100093.38;4286992;33;20097;-81
2023/05/27 07:27:34;;;;;;;9.05;4.37;;;;;;;25.27;60.55;100097.50;4288361;33;20126;-82
2023/05/27 07:30:00;;;;;;;5.95;3.92;;;;;;;25.36;60.56;100100.22;4288504;33;20464;-82
2023/05/27 07:32:26;;;;;;;8.98;3.55;;;;;;;25.41;60.57;100097.16;4288041;33;30855;-82
2023/05/27 07:34:51;;;;;;;11.85;4.07;;;;;;;25.27;60.56;100102.84;4290048;33;20492;-82
2023/05/27 07:37:17;;;;;;;7.22;3.67;;;;;;;25.12;60.54;100098.88;4287949;33;36039;-82
2023/05/27 07:39:42;;;;;;;8.18;3.40;;;;;;;25.08;60.55;100095.63;4288618;33;20176;-82
2023/05/27 07:42:07;;;;;;;5.55;4.00;;;;;;;24.89;60.53;100106.16;4275715;33;34906;-82
2023/05/27 07:44:33;;;;;;;6.30;3.42;;;;;;;24.86;60.54;100103.75;4287868;33;33183;-82
2023/05/27 07:47:00;;;;;;;8.32;3.58;;;;;;;24.73;60.52;100104.78;4289397;33;20108;-82
2023/05/27 07:49:25;;;;;;;6.05;3.67;;;;;;;24.71;60.53;100096.09;4288494;33;20113;-81
2023/05/27 07:51:51;;;;;;;11.85;3.60;;;;;;;24.79;60.53;100096.25;4289426;33;20131;-82
2023/05/27 07:54:16;;;;;;;9.60;3.70;;;;;;;24.92;60.54;100093.41;4276628;33;20486;-82
2023/05/27 07:56:41;;;;;;;7.82;4.32;;;;;;;25.03;60.54;100092.50;4276008;33;24202;-81
2023/05/27 07:59:07;;;;;;;6.85;3.85;;;;;;;25.49;60.57;100089.31;4287542;33;27803;-80
2023/05/27 08:01:32;;;;;;;11.40;3.50;;;;;;;25.97;60.59;100081.41;4287903;33;20487;-81
2023/05/27 08:03:59;;;;;;;7.90;4.07;;;;;;;26.25;60.61;100082.41;4288264;33;20148;-80
2023/05/27 08:06:24;;;;;;;5.85;3.60;;;;;;;26.31;60.62;100089.88;4288155;33;20105;-81
2023/05/27 08:08:50;;;;;;;6.22;3.53;;;;;;;26.35;60.62;100079.78;4287611;33;25878;-80
2023/05/27 08:11:15;;;;;;;8.65;4.15;;;;;;;26.60;60.63;100073.84;4287762;33;20160;-80
2023/05/27 08:13:42;;;;;;;13.02;5.43;;;;;;;26.43;60.62;100073.72;4287498;33;25739;-80
2023/05/27 08:16:08;;;;;;;6.85;3.60;;;;;;;26.21;60.60;100077.50;4288151;33;20096;-79
2023/05/27 08:18:35;;;;;;;9.55;4.10;;;;;;;26.50;60.63;100070.34;4288028;33;20360;-82
2023/05/27 08:21:00;;;;;;;6.10;3.53;;;;;;;26.49;60.62;100073.97;4288024;33;20092;-82
2023/05/27 08:23:26;;;;;;;12.15;4.07;;;;;;;26.30;60.61;100069.50;4288518;33;32619;-81
2023/05/27 08:25:51;;;;;;;6.82;4.00;;;;;;;26.53;60.62;100070.06;4287931;33;20116;-81
2023/05/27 08:28:16;;;;;;;8.00;3.55;;;;;;;26.71;60.64;100067.47;4287457;33;20113;-80
2023/05/27 08:30:42;;;;;;;7.93;3.55;;;;;;;26.62;60.62;100069.19;4274914;33;35010;-81
2023/05/27 08:33:08;;;;;;;6.62;3.67;;;;;;;26.62;60.62;100071.03;4288906;33;20106;-79
2023/05/27 08:35:33;;;;;;;7.75;3.42;;;;;;;26.60;60.63;100064.97;4274934;33;24491;-81
2023/05/27 08:37:58;;;;;;;6.78;3.80;;;;;;;26.93;60.64;100063.59;4287681;33;28457;-82
2023/05/27 08:40:24;;;;;;;10.68;4.18;;;;;;;27.18;60.66;100060.31;4290010;33;20085;-80
2023/05/27 08:42:49;;;;;;;7.47;3.83;;;;;;;27.48;60.67;100058.34;4276542;33;37051;-81
2023/05/27 08:45:15;;;;;;;8.93;3.85;;;;;;;27.70;60.68;100055.28;4277720;33;20156;-82
2023/05/27 08:47:40;;;;;;;5.95;4.20;;;;;;;27.74;60.69;100059.31;4289748;33;20157;-82
2023/05/27 08:50:07;;;;;;;9.93;3.80;;;;;;;27.57;60.67;100054.75;4289212;33;20107;-81
2023/05/27 08:52:32;;;;;;;9.40;3.55;;;;;;;27.36;60.67;100063.03;4277673;33;20101;-81
2023/05/27 08:54:58;;;;;;;8.48;3.87;;;;;;;27.01;60.65;100055.75;4277240;33;23177;-82
2023/05/27 08:57:27;;;;;;;5.40;3.35;;;;;;;26.90;60.64;100064.75;4277120;33;20144;-80
2023/05/27 08:59:53;;;;;;;6.80;3.83;;;;;;;26.93;60.64;100059.09;4289606;33;20093;-81
2023/05/27 09:02:18;;;;;;;6.55;3.50;;;;;;;27.12;60.65;100054.72;4277555;33;20109;-81
2023/05/27 09:04:44;;;;;;;9.38;3.47;;;;;;;27.29;60.66;100056.59;4277415;33;20116;-81
2023/05/27 09:07:09;;;;;;;7.05;3.70;;;;;;;27.44;60.67;100054.25;4277195;33;20134;-81
2023/05/27 09:09:35;;;;;;;5.62;3.35;;;;;;;27.73;60.70;100060.31;4277618;33;20113;-82
2023/05/27 09:12:02;;;;;;;9.75;3.87;;;;;;;28.10;60.71;100065.50;4289386;33;20101;-83
2023/05/27 09:14:30;;;;;;;8.90;3.65;;;;;;;28.07;60.71;100055.09;4289597;33;20143;-81
2023/05/27 09:16:56;;;;;;;7.87;4.15;;;;;;;27.90;60.70;100060.44;4289568;33;20176;-82
2023/05/27 09:19:21;;;;;;;8.70;3.67;;;;;;;27.80;60.69;100064.06;4289279;33;20097;-82
2023/05/27 09:21:48;;;;;;;6.70;3.42;;;;;;;27.67;60.69;100052.03;4290655;33;20109;-82
2023/05/27 09:24:13;;;;;;;9.02;3.70;;;;;;;27.70;60.68;100057.09;4289386;33;20109;-81
2023/05/27 09:26:39;;;;;;;10.95;3.87;;;;;;;27.65;60.68;100043.31;4290649;33;20472;-81
2023/05/27 09:29:07;;;;;;;7.07;4.03;;;;;;;27.77;60.69;100048.31;4289282;33;20408;-82
2023/05/27 09:31:42;;;;;;;6.43;3.45;;;;;;;27.65;60.68;100043.31;4277545;33;20101;-81
2023/05/27 09:34:12;;;;;;;7.05;3.95;;;;;;;27.73;60.70;100046.09;4290406;33;20093;-82
2023/05/27 09:36:45;;;;;;;10.05;3.70;;;;;;;27.80;60.68;100042.66;4289330;33;20216;-81
2023/05/27 09:39:11;;;;;;;5.43;3.53;;;;;;;28.03;60.70;100045.72;4277326;33;20111;-81
2023/05/27 09:41:40;;;;;;;8.10;4.18;;;;;;;28.18;60.71;100034.47;4277492;33;20097;-81
2023/05/27 09:44:05;;;;;;;6.18;3.78;;;;;;;28.20;60.71;100041.34;4289229;33;20168;-83
2023/05/27 09:46:34;;;;;;;5.30;3.37;;;;;;;28.47;60.73;100034.22;4288495;33;20127;-81
2023/05/27 09:49:00;;;;;;;8.43;4.72;;;;;;;28.46;60.73;100040.56;4287484;33;20120;-82
2023/05/27 09:51:29;;;;;;;10.85;4.07;;;;;;;28.43;60.72;100042.56;4276767;33;20093;-82
2023/05/27 09:53:58;;;;;;;8.65;4.20;;;;;;;28.23;60.72;100038.34;4277168;33;20117;-81
2023/05/27 09:56:26;;;;;;;7.55;4.03;;;;;;;28.32;60.72;100036.59;4277243;33;20104;-81
2023/05/27 09:58:52;;;;;;;6.53;4.12;;;;;;;28.52;60.72;100039.94;4277109;33;20219;-81
2023/05/27 10:01:18;;;;;;;8.02;4.15;;;;;;;28.85;60.75;100028.44;4288170;33;20111;-82
2023/05/27 10:03:44;;;;;;;8.77;4.62;;;;;;;28.92;60.75;100032.16;4265167;33;20109;-83
2023/05/27 10:06:12;;;;;;;10.40;3.75;;;;;;;29.15;60.75;100031.59;4277220;33;20140;-82
2023/05/27 10:08:38;;;;;;;9.50;3.58;;;;;;;28.97;60.74;100027.16;4277087;33;20126;-82
2023/05/27 10:11:03;;;;;;;12.37;4.03;;;;;;;28.70;60.74;100027.31;4276383;33;26230;-82
2023/05/27 10:13:29;;;;;;;6.20;3.58;;;;;;;28.72;60.74;100026.16;4288330;33;20390;-81
2023/05/27 10:15:54;;;;;;;6.60;4.00;;;;;;;28.60;60.73;100021.22;4277016;33;20128;-82
2023/05/27 10:18:28;;;;;;;10.68;4.07;;;;;;;28.58;60.73;100024.06;4288695;33;20092;-83
2023/05/27 10:20:53;;;;;;;6.25;3.42;;;;;;;28.63;60.74;100034.31;4289047;33;20127;-84
2023/05/27 10:23:25;;;;;;;6.12;3.50;;;;;;;28.64;60.73;100038.69;4288431;33;20109;-84
2023/05/27 10:25:56;;;;;;;5.75;3.87;;;;;;;28.77;60.74;100023.00;4288995;33;20100;-84
2023/05/27 10:28:32;;;;;;;9.55;4.10;;;;;;;28.87;60.75;100029.12;4276809;33;20088;-84
2023/05/27 10:31:11;;;;;;;6.45;3.92;;;;;;;28.70;60.74;100022.81;4288913;33;20135;-84
2023/05/27 10:33:37;;;;;;;13.32;4.90;;;;;;;28.56;60.73;100019.87;4288738;33;20135;-83
2023/05/27 10:36:24;;;;;;;8.35;4.20;;;;;;;28.33;60.72;100024.91;4290194;33;20127;-84
2023/05/27 10:38:56;;;;;;;6.72;4.07;;;;;;;28.33;60.72;100030.25;4288751;33;20126;-82
2023/05/27 10:41:22;;;;;;;6.57;4.00;;;;;;;28.08;60.71;100032.69;4277298;33;20421;-84
2023/05/27 10:43:55;;;;;;;8.88;4.47;;;;;;;28.06;60.71;100028.50;4290293;33;20189;-83
2023/05/27 10:46:21;;;;;;;7.37;4.10;;;;;;;27.97;60.71;100026.75;4277261;33;20139;-84
2023/05/27 10:48:46;;;;;;;7.12;4.20;;;;;;;27.86;60.70;100021.62;4287720;33;35660;-83
2023/05/27 10:51:12;;;;;;;10.77;5.00;;;;;;;27.77;60.69;100023.41;4277035;33;20391;-84
2023/05/27 10:53:37;;;;;;;7.35;4.35;;;;;;;27.99;60.71;100022.09;4288605;33;20446;-83
2023/05/27 10:56:03;;;;;;;7.00;3.53;;;;;;;28.27;60.71;100017.50;4288368;33;20101;-83
2023/05/27 10:58:28;;;;;;;8.45;3.95;;;;;;;28.51;60.72;100012.31;4276934;33;20215;-83
2023/05/27 11:00:56;;;;;;;7.00;4.43;;;;;;;28.72;60.74;100011.94;4276352;33;20112;-83
2023/05/27 11:03:23;;;;;;;7.40;3.90;;;;;;;29.10;60.76;100004.41;4287857;33;20427;-83
2023/05/27 11:05:58;;;;;;;7.18;4.43;;;;;;;29.31;60.77;100004.81;4276284;33;20101;-83
2023/05/27 11:08:24;;;;;;;7.50;4.47;;;;;;;29.49;60.78;100002.06;4278111;33;20089;-81
2023/05/27 11:10:50;;;;;;;8.07;4.47;;;;;;;29.67;60.78;99996.56;4287111;33;20486;-81
2023/05/27 11:13:15;;;;;;;9.20;4.93;;;;;;;29.72;60.79;99992.38;4286520;33;20211;-83
2023/05/27 11:15:41;;;;;;;8.05;4.97;;;;;;;29.90;60.80;100006.47;4269118;33;20136;-86
2023/05/27 11:18:07;;;;;;;5.70;3.53;;;;;;;29.87;60.79;100000.63;4274458;33;20136;-83
2023/05/27 11:20:37;;;;;;;10.15;4.07;;;;;;;29.90;60.80;99993.06;4286839;33;20480;-85
2023/05/27 11:23:02;;;;;;;9.90;4.85;;;;;;;29.75;60.80;99997.41;4286895;33;20530;-84
2023/05/27 11:25:28;;;;;;;4.97;3.72;;;;;;;29.52;60.78;99991.84;4286952;33;20109;-85